Saturday, April 30, 2016
16:55 UTC
  |  Log In   |  Register Free
Airport Search:

Fort Smith Regional Airport
(KFSM)

FAA data valid effective Mar 31 2016 - May 26 2016 (unless otherwise noted).

 
 
 
 
 
 
 
 
 
 
 
 
 
 
Current Aviation Weather for KFSM

Weather Summary


The most recent METAR observation for FSM was updated at: 12:53 UTC
METAR for KFSM is not available. Closest METAR is for KJSV
KFSM  (most recent observation was updatred at 30:15 UTC)
301553Z 23007KT 10SM BKN035 22/17 A2976 RMK AO2 SLP072 T02220167

KJSV  (22.2 nm SE)   (most recent observation was updated at 30:16 UTC)
301635Z AUTO 27006KT 10SM OVC005 18/17 A2977 RMK AO2

KRKR  (22.6 nm NE)   (most recent observation was updated at 30:16 UTC)
301635Z AUTO 23004KT 10SM SCT028 BKN034 23/17 A2975 RMK AO2 T02270166

TAF for KFSM is not available.
KFSM
AMD 301627Z 3016/0112 25007KT P6SM BKN035 FM301800 27007KT P6SM SCT025 BKN250 FM010000 29003KT P6SM SKC

GlobalAir.com is loading additional information.
 Current Weather at FSM
69.0 F° (20.6 C°)

North winds at 0.0 mph
Pressure:
29.75 in
Humidity:
78%
Wind:
North at 0.0 mph
Dew Point:
62.1 F° (16.7 C°)
Visibility:
10.00 mi
FSM NOAA Radar




Find All Airport Services Find A Hotel Find A Rental Car Find A Golf Course Find A Restaurant $100 Hamburger



Airport Weather Forecast for KFSM

Translated METAR for KFSM (1553 UTC)
METAR:
KFSM 301553Z 23007KT 10SM BKN035 22/17 A2976 RMK AO2 SLP072 T02220167
Conditions at:
KFSM (Fort Smith Rgnl, AR) observed 1553 UTC 30 April 2016
Temperature:
22°C (71.6°F)
Dewpoint:
17°C (62.6°F) [RH = 73.3]
Pressure:
29.76 inches Hg (1007.8 mb)
pressure at sea level is 72 in Hg
Winds:
from the SW (230 degrees) at 8.1 mph (7 knots: 3.6 m/s)
Visibility:
10 mile(s)
Ceiling:
3,500 feet AGL
Clouds:
Broken Cloud Cover at 3,500 feet AGL
Remarks:
site is automated and HAS a precipitation sensor

FBO's on the Field
FBO Company Facility Photos Services Transportation Aviation Fuel Prices: Prices include tax
Catering Weather Repair Courtesy Rental Type 100LL JetA JetA+ MOGAS 8087
 
TAC Air - FSM

This FBO has not yet been rated
FS:Phillips 66
Last Updated: Apr-28
Login to update fuel prices
SS:
Contact TAC Air - FSMMore FBO Information
 
Add another FBO Facility Photos Catering Weather Repair Courtesy Rental Type 100LL JetA JetA+ MOGAS 8087
Services Transportation Aviation Fuel Prices: Prices include tax


model-print
model-print
model-print
model-print